Weather at Austin Air Ads Airport [CLOSED]

Public forecast

Using degrees Fahrenheit for public forecast. Weather courtesy of forecast.io.

Closest aviation weather report (METAR) to Austin Air Ads Airport

Closest report is Terre Haute Regional Airport, Hulman Field, 14.3 nm (26.5 km) NNE. Retrieved 2021/03/07 12:53 UTC (24 minutes ago):

KHUF 071253Z 00000KT 10SM CLR M02/M07 A3043 RMK AO2 SLP310 T10221072

Closest aviation forecast (TAF) to Austin Air Ads Airport

Closest forecast is Terre Haute Regional Airport, Hulman Field, 14.3 nm (26.5 km) NNE. Retrieved 2021/03/07 12:22 UTC (55 minutes ago):

TAF KHUF 071120Z 0712/0812 13004KT P6SM SKC FM071700 17005KT P6SM SKC FM072100 20005KT P6SM FEW250